Time;durP1;ratioP1;P1;durP2;ratioP2;P2;SDS_P1;SDS_P2;PMS_P1;PMS_P2;Temp;Humidity;BMP_temperature;BMP_pressure;BME280_temperature;BME280_humidity;BME280_pressure;Samples;Min_cycle;Max_cycle;Signal;HPM_P1;HPM_P2
2022/07/01 00:00:54;;;;;;;1.95;1.42;;;;;;;;;;5004856;28;20050;-78
2022/07/01 00:03:20;;;;;;;2.05;1.25;;;;;;;;;;5004903;28;20088;-79
2022/07/01 00:05:46;;;;;;;1.50;1.40;;;;;;;;;;5010368;28;20042;-79
2022/07/01 00:08:12;;;;;;;2.17;1.40;;;;;;;;;;5004075;28;20056;-79
2022/07/01 00:10:38;;;;;;;1.27;1.23;;;;;;;;;;5002684;28;20057;-79
2022/07/01 00:13:06;;;;;;;2.17;1.13;;;;;;;;;;5007845;28;20050;-79
2022/07/01 00:15:32;;;;;;;1.40;1.30;;;;;;;;;;5006812;28;20041;-79
2022/07/01 00:17:58;;;;;;;1.40;1.30;;;;;;;;;;5008032;28;20045;-78
2022/07/01 00:20:24;;;;;;;1.48;1.30;;;;;;;;;;5007740;28;20516;-77
2022/07/01 00:22:50;;;;;;;2.35;1.40;;;;;;;;;;5004471;28;20049;-79
2022/07/01 00:25:16;;;;;;;3.08;1.50;;;;;;;;;;5005871;28;20146;-79
2022/07/01 00:27:42;;;;;;;1.67;1.30;;;;;;;;;;5006460;28;20077;-79
2022/07/01 00:30:10;;;;;;;1.60;1.42;;;;;;;;;;5004481;28;20115;-79
2022/07/01 00:32:36;;;;;;;1.98;1.33;;;;;;;;;;5006169;28;20048;-79
2022/07/01 00:35:02;;;;;;;2.95;1.38;;;;;;;;;;5001538;28;20051;-78
2022/07/01 00:37:28;;;;;;;1.48;1.38;;;;;;;;;;5002713;28;20485;-79
2022/07/01 00:39:54;;;;;;;2.38;1.30;;;;;;;;;;5005227;28;20335;-78
2022/07/01 00:42:21;;;;;;;1.38;1.23;;;;;;;;;;5009106;28;20045;-79
2022/07/01 00:44:47;;;;;;;1.50;1.20;;;;;;;;;;5007689;28;20061;-79
2022/07/01 00:47:14;;;;;;;1.65;1.40;;;;;;;;;;5003567;28;20454;-79
2022/07/01 00:49:40;;;;;;;1.10;1.10;;;;;;;;;;5004013;28;20168;-79
2022/07/01 00:52:06;;;;;;;1.70;1.20;;;;;;;;;;5003373;28;20112;-78
2022/07/01 00:54:35;;;;;;;1.40;1.30;;;;;;;;;;5001972;28;20494;-78
2022/07/01 00:57:05;;;;;;;2.08;1.20;;;;;;;;;;5005944;28;20034;-79
2022/07/01 00:59:31;;;;;;;1.30;1.20;;;;;;;;;;5004760;28;20041;-79
2022/07/01 01:01:57;;;;;;;1.10;1.10;;;;;;;;;;5002595;28;20046;-79
2022/07/01 01:04:24;;;;;;;1.38;1.25;;;;;;;;;;5007385;28;20042;-79
2022/07/01 01:06:51;;;;;;;1.02;0.93;;;;;;;;;;5005293;28;20042;-79
2022/07/01 01:09:17;;;;;;;1.20;1.10;;;;;;;;;;5003484;28;20739;-78
2022/07/01 01:11:43;;;;;;;1.20;1.10;;;;;;;;;;5006413;28;20124;-79
2022/07/01 01:14:09;;;;;;;1.10;1.00;;;;;;;;;;5005633;28;20434;-79
2022/07/01 01:16:35;;;;;;;1.45;1.10;;;;;;;;;;5004336;28;20045;-78
2022/07/01 01:19:04;;;;;;;1.20;1.10;;;;;;;;;;5005345;28;20058;-79
2022/07/01 01:21:30;;;;;;;3.42;1.63;;;;;;;;;;5005168;28;20132;-78
2022/07/01 01:23:58;;;;;;;1.55;1.10;;;;;;;;;;5004771;28;20073;-78
2022/07/01 01:26:25;;;;;;;1.30;1.10;;;;;;;;;;5003924;28;20116;-79
2022/07/01 01:28:51;;;;;;;2.42;1.10;;;;;;;;;;5005045;28;20084;-79
2022/07/01 01:31:18;;;;;;;1.30;1.20;;;;;;;;;;5003571;28;20161;-79
2022/07/01 01:33:44;;;;;;;1.30;1.20;;;;;;;;;;5004953;28;20046;-79
2022/07/01 01:36:10;;;;;;;1.75;1.15;;;;;;;;;;5005366;28;20482;-79
2022/07/01 01:38:37;;;;;;;1.10;1.10;;;;;;;;;;5003516;28;20140;-78
2022/07/01 01:41:04;;;;;;;1.75;1.20;;;;;;;;;;5006140;28;20096;-78
2022/07/01 01:43:30;;;;;;;2.38;1.25;;;;;;;;;;5005563;28;20064;-79
2022/07/01 01:45:56;;;;;;;1.33;1.20;;;;;;;;;;5004639;28;20038;-79
2022/07/01 01:48:22;;;;;;;1.35;1.20;;;;;;;;;;5004500;28;20053;-79
2022/07/01 01:50:48;;;;;;;1.35;1.25;;;;;;;;;;5005886;28;20057;-79
2022/07/01 01:53:14;;;;;;;2.42;1.48;;;;;;;;;;5007283;28;20073;-78
2022/07/01 01:55:40;;;;;;;2.92;1.40;;;;;;;;;;5005092;28;20085;-78
2022/07/01 01:58:06;;;;;;;2.03;1.40;;;;;;;;;;5010314;28;20470;-79
2022/07/01 02:00:32;;;;;;;2.60;1.38;;;;;;;;;;5003074;28;20049;-79
2022/07/01 02:02:58;;;;;;;1.65;1.30;;;;;;;;;;5008153;28;20057;-78
2022/07/01 02:05:24;;;;;;;1.83;1.35;;;;;;;;;;5007514;28;20141;-78
2022/07/01 02:07:50;;;;;;;3.35;1.35;;;;;;;;;;5008196;28;20049;-79
2022/07/01 02:10:16;;;;;;;3.08;1.40;;;;;;;;;;4999741;28;20401;-79
2022/07/01 02:12:42;;;;;;;2.55;1.58;;;;;;;;;;5002714;28;20042;-79
2022/07/01 02:15:08;;;;;;;1.88;1.30;;;;;;;;;;5003033;28;20050;-78
2022/07/01 02:17:34;;;;;;;2.03;1.35;;;;;;;;;;5005114;28;20100;-79
2022/07/01 02:20:00;;;;;;;3.00;1.40;;;;;;;;;;5004556;28;20046;-78
2022/07/01 02:22:26;;;;;;;3.80;1.40;;;;;;;;;;5005058;28;20069;-79
2022/07/01 02:24:52;;;;;;;3.15;1.50;;;;;;;;;;5005467;28;20424;-79
2022/07/01 02:27:18;;;;;;;5.20;1.60;;;;;;;;;;5005494;28;20087;-79
2022/07/01 02:29:44;;;;;;;1.70;1.50;;;;;;;;;;5006910;28;20124;-79
2022/07/01 02:32:10;;;;;;;2.05;1.48;;;;;;;;;;5006366;28;20482;-78
2022/07/01 02:34:36;;;;;;;1.83;1.40;;;;;;;;;;5004961;28;20041;-78
2022/07/01 02:37:03;;;;;;;3.72;1.52;;;;;;;;;;5008451;28;20038;-79
2022/07/01 02:39:29;;;;;;;4.28;1.65;;;;;;;;;;5010271;28;20434;-79
2022/07/01 02:44:39;;;;;;;2.60;1.52;;;;;;;;;;5007758;28;20041;-79
2022/07/01 02:47:05;;;;;;;4.00;1.65;;;;;;;;;;5006031;28;20053;-80
2022/07/01 02:49:31;;;;;;;2.40;1.38;;;;;;;;;;5006683;28;20100;-79
2022/07/01 02:51:57;;;;;;;3.00;1.80;;;;;;;;;;5010377;28;20038;-78
2022/07/01 02:54:23;;;;;;;2.20;1.30;;;;;;;;;;5008605;28;20628;-78
2022/07/01 02:56:49;;;;;;;3.45;1.67;;;;;;;;;;5009474;28;20038;-79
2022/07/01 02:59:15;;;;;;;3.70;1.60;;;;;;;;;;5005356;28;20516;-79
2022/07/01 03:01:41;;;;;;;2.72;1.27;;;;;;;;;;5005009;28;20046;-79
2022/07/01 03:04:07;;;;;;;2.58;1.50;;;;;;;;;;5010343;28;20050;-78
2022/07/01 03:06:33;;;;;;;2.38;1.42;;;;;;;;;;5004017;28;20050;-77
2022/07/01 03:08:59;;;;;;;4.80;1.50;;;;;;;;;;5008198;28;20054;-79
2022/07/01 03:11:25;;;;;;;3.78;1.80;;;;;;;;;;5001560;28;20057;-78
2022/07/01 03:13:51;;;;;;;4.15;1.75;;;;;;;;;;5007857;28;20480;-78
2022/07/01 03:16:17;;;;;;;4.75;1.70;;;;;;;;;;5006678;28;20042;-79
2022/07/01 03:18:43;;;;;;;3.58;1.60;;;;;;;;;;5004338;28;20049;-78
2022/07/01 03:21:09;;;;;;;3.80;1.40;;;;;;;;;;5005256;28;20050;-78
2022/07/01 03:23:35;;;;;;;2.80;1.40;;;;;;;;;;5006177;28;20425;-78
2022/07/01 03:26:01;;;;;;;2.72;1.67;;;;;;;;;;5008441;28;20034;-78
2022/07/01 03:28:27;;;;;;;3.92;1.40;;;;;;;;;;5005619;28;20359;-79
2022/07/01 03:30:53;;;;;;;2.95;1.60;;;;;;;;;;5007254;28;20176;-78
2022/07/01 03:33:19;;;;;;;6.72;1.50;;;;;;;;;;5009407;28;20042;-78
2022/07/01 03:35:46;;;;;;;3.10;1.60;;;;;;;;;;5005131;28;20475;-78
2022/07/01 03:38:12;;;;;;;2.03;1.48;;;;;;;;;;5008018;28;20053;-78
2022/07/01 03:40:38;;;;;;;4.80;1.88;;;;;;;;;;5008216;28;20042;-78
2022/07/01 03:43:05;;;;;;;4.80;1.70;;;;;;;;;;5010456;28;20087;-79
2022/07/01 03:45:31;;;;;;;4.13;1.70;;;;;;;;;;5008639;28;20042;-79
2022/07/01 03:47:57;;;;;;;4.15;1.90;;;;;;;;;;5008094;28;20053;-78
2022/07/01 03:50:24;;;;;;;4.75;1.75;;;;;;;;;;5003722;28;20686;-78
2022/07/01 03:55:36;;;;;;;5.38;1.95;;;;;;;;;;5008676;28;20089;-78
2022/07/01 03:58:02;;;;;;;5.90;1.90;;;;;;;;;;5008475;28;20570;-79
2022/07/01 04:00:28;;;;;;;3.63;2.08;;;;;;;;;;5003068;28;20050;-78
2022/07/01 04:02:54;;;;;;;3.78;1.70;;;;;;;;;;5005467;28;20046;-78
2022/07/01 04:05:20;;;;;;;8.05;2.40;;;;;;;;;;5006771;28;20474;-78
2022/07/01 04:07:46;;;;;;;4.85;1.80;;;;;;;;;;5005226;28;20061;-79
2022/07/01 04:10:13;;;;;;;6.28;2.22;;;;;;;;;;5007299;28;20042;-79
2022/07/01 04:12:39;;;;;;;4.97;2.00;;;;;;;;;;5001744;28;20042;-79
2022/07/01 04:15:05;;;;;;;3.72;1.80;;;;;;;;;;5001982;28;20048;-79
2022/07/01 04:17:32;;;;;;;4.35;1.90;;;;;;;;;;5002282;28;20076;-79
2022/07/01 04:19:58;;;;;;;2.95;1.83;;;;;;;;;;5001728;28;20235;-79
2022/07/01 04:22:33;;;;;;;4.43;1.90;;;;;;;;;;5005057;28;20137;-79
2022/07/01 04:25:07;;;;;;;6.15;2.05;;;;;;;;;;5001803;28;20052;-79
2022/07/01 04:27:33;;;;;;;4.65;1.63;;;;;;;;;;5004917;28;20593;-79
2022/07/01 04:30:01;;;;;;;6.22;2.00;;;;;;;;;;5000401;28;20153;-80
2022/07/01 04:32:27;;;;;;;6.32;1.92;;;;;;;;;;5001217;28;20072;-79
2022/07/01 04:34:53;;;;;;;4.00;1.67;;;;;;;;;;4998783;28;20057;-78
2022/07/01 04:37:19;;;;;;;8.32;2.30;;;;;;;;;;5016216;28;20050;-79
2022/07/01 04:39:45;;;;;;;3.95;1.98;;;;;;;;;;5002620;28;20064;-78
2022/07/01 04:42:14;;;;;;;6.63;2.25;;;;;;;;;;5004015;28;20041;-79
2022/07/01 04:44:40;;;;;;;4.72;2.03;;;;;;;;;;4999738;28;20049;-79
2022/07/01 04:47:06;;;;;;;5.82;2.42;;;;;;;;;;5001935;28;20543;-79
2022/07/01 04:49:32;;;;;;;5.07;2.35;;;;;;;;;;5001268;28;20045;-79
2022/07/01 04:51:59;;;;;;;6.28;2.33;;;;;;;;;;5000061;28;20048;-79
2022/07/01 04:54:28;;;;;;;9.68;2.45;;;;;;;;;;5023614;28;20128;-79
2022/07/01 04:56:54;;;;;;;6.88;2.40;;;;;;;;;;5003057;28;20393;-78
2022/07/01 04:59:20;;;;;;;4.90;1.95;;;;;;;;;;5003180;28;20061;-79
2022/07/01 05:01:48;;;;;;;6.40;2.47;;;;;;;;;;4999589;28;20041;-79
2022/07/01 05:04:14;;;;;;;5.43;2.38;;;;;;;;;;5002487;28;20054;-79
2022/07/01 05:06:41;;;;;;;9.18;2.47;;;;;;;;;;4999695;28;20048;-79
2022/07/01 05:09:07;;;;;;;6.90;2.50;;;;;;;;;;5001749;28;20165;-79
2022/07/01 05:11:33;;;;;;;8.13;3.47;;;;;;;;;;4998779;28;20053;-78
2022/07/01 05:13:59;;;;;;;6.32;2.67;;;;;;;;;;5001986;28;20113;-78
2022/07/01 05:16:25;;;;;;;5.63;2.47;;;;;;;;;;5001782;28;20050;-78
2022/07/01 05:24:20;;;;;;;5.53;2.45;;;;;;;;;;5020386;28;20038;-78
2022/07/01 05:26:47;;;;;;;5.30;2.13;;;;;;;;;;4999535;28;20076;-79
2022/07/01 05:29:13;;;;;;;8.15;2.47;;;;;;;;;;5002589;28;20421;-79
2022/07/01 05:31:39;;;;;;;6.85;2.40;;;;;;;;;;5000411;28;20042;-79
2022/07/01 05:34:06;;;;;;;5.93;2.30;;;;;;;;;;5000271;28;20049;-78
2022/07/01 05:36:32;;;;;;;6.18;2.40;;;;;;;;;;4999683;28;20042;-78
2022/07/01 05:38:59;;;;;;;7.25;2.50;;;;;;;;;;5002881;28;20396;-78
2022/07/01 05:41:25;;;;;;;5.90;2.20;;;;;;;;;;5002978;28;20042;-78
2022/07/01 05:43:51;;;;;;;7.15;2.40;;;;;;;;;;5001909;28;20041;-77
2022/07/01 05:46:17;;;;;;;5.57;2.20;;;;;;;;;;4999349;28;20052;-79
2022/07/01 05:48:43;;;;;;;9.57;2.42;;;;;;;;;;5002644;28;20136;-79
2022/07/01 05:51:09;;;;;;;5.95;2.17;;;;;;;;;;5001830;28;20092;-79
2022/07/01 05:53:35;;;;;;;6.30;2.45;;;;;;;;;;5000543;28;20497;-79
2022/07/01 05:56:01;;;;;;;5.78;2.38;;;;;;;;;;5004068;28;20044;-78
2022/07/01 05:58:27;;;;;;;5.68;2.33;;;;;;;;;;5000639;28;20181;-79
2022/07/01 06:00:53;;;;;;;6.82;2.20;;;;;;;;;;4999227;28;20070;-80
2022/07/01 06:03:19;;;;;;;8.85;2.55;;;;;;;;;;5001212;28;20151;-78
2022/07/01 06:05:45;;;;;;;7.80;2.42;;;;;;;;;;5005951;28;20127;-79
2022/07/01 06:08:11;;;;;;;6.40;2.40;;;;;;;;;;5005532;28;20046;-78
2022/07/01 06:10:37;;;;;;;4.35;2.38;;;;;;;;;;5009505;28;20041;-79
2022/07/01 06:13:04;;;;;;;5.95;2.40;;;;;;;;;;5012456;28;20081;-78
2022/07/01 06:15:30;;;;;;;5.28;2.22;;;;;;;;;;5007013;28;20133;-79
2022/07/01 06:17:57;;;;;;;6.03;2.35;;;;;;;;;;5011159;28;20078;-78
2022/07/01 06:20:23;;;;;;;5.80;2.40;;;;;;;;;;5005958;28;20054;-79
2022/07/01 06:22:49;;;;;;;4.82;1.90;;;;;;;;;;5008983;28;20049;-79
2022/07/01 06:25:15;;;;;;;4.75;2.28;;;;;;;;;;5011532;28;20053;-79
2022/07/01 06:27:42;;;;;;;6.30;2.10;;;;;;;;;;5008961;28;20096;-79
2022/07/01 06:30:08;;;;;;;5.90;2.40;;;;;;;;;;5006608;28;20049;-78
2022/07/01 06:32:34;;;;;;;6.68;2.28;;;;;;;;;;5008304;28;20057;-78
2022/07/01 06:35:00;;;;;;;6.25;2.20;;;;;;;;;;5011240;28;20046;-77
2022/07/01 06:37:27;;;;;;;5.25;2.00;;;;;;;;;;5001401;28;20849;-78
2022/07/01 06:39:53;;;;;;;6.15;2.40;;;;;;;;;;5010243;28;20050;-78
2022/07/01 06:42:21;;;;;;;5.35;2.22;;;;;;;;;;5010093;28;20050;-78
2022/07/01 06:44:47;;;;;;;5.75;2.10;;;;;;;;;;5010781;28;20077;-78
2022/07/01 06:47:14;;;;;;;6.10;2.45;;;;;;;;;;5005651;28;20224;-78
2022/07/01 06:49:40;;;;;;;5.40;2.30;;;;;;;;;;5008047;28;20049;-77
2022/07/01 06:52:06;;;;;;;6.28;2.38;;;;;;;;;;4995097;28;20481;-77
2022/07/01 06:54:32;;;;;;;7.53;2.75;;;;;;;;;;5010944;28;20136;-78
2022/07/01 06:56:58;;;;;;;3.78;2.03;;;;;;;;;;5008907;28;20085;-78
2022/07/01 06:59:24;;;;;;;4.10;1.95;;;;;;;;;;5007450;28;20132;-78
2022/07/01 07:01:50;;;;;;;4.15;1.98;;;;;;;;;;5009247;28;20133;-77
2022/07/01 07:04:16;;;;;;;5.57;2.22;;;;;;;;;;5012540;28;20038;-77
2022/07/01 07:06:42;;;;;;;6.85;2.20;;;;;;;;;;5012224;28;20046;-78
2022/07/01 07:09:08;;;;;;;5.70;2.10;;;;;;;;;;5007513;28;20092;-77
2022/07/01 07:11:34;;;;;;;5.25;2.08;;;;;;;;;;5010121;28;20477;-76
2022/07/01 07:14:00;;;;;;;5.60;1.85;;;;;;;;;;5010206;28;20078;-77
2022/07/01 07:16:27;;;;;;;5.18;2.15;;;;;;;;;;5011221;28;20111;-76
2022/07/01 07:18:53;;;;;;;6.60;2.17;;;;;;;;;;5011105;28;20038;-76
2022/07/01 07:21:19;;;;;;;7.57;2.40;;;;;;;;;;5009513;28;20050;-76
2022/07/01 07:23:45;;;;;;;5.85;2.45;;;;;;;;;;5008741;28;20116;-77
2022/07/01 07:26:12;;;;;;;7.28;2.30;;;;;;;;;;5013195;28;20050;-76
2022/07/01 07:28:38;;;;;;;6.53;2.25;;;;;;;;;;5005576;28;20050;-77
2022/07/01 07:31:04;;;;;;;6.28;1.95;;;;;;;;;;5008554;28;20044;-77
2022/07/01 07:33:30;;;;;;;5.60;1.95;;;;;;;;;;5011056;28;20046;-76
2022/07/01 07:35:56;;;;;;;4.82;1.80;;;;;;;;;;5006742;28;20045;-77
2022/07/01 07:38:22;;;;;;;2.30;1.70;;;;;;;;;;5010579;28;20103;-78
2022/07/01 07:40:48;;;;;;;4.57;1.85;;;;;;;;;;5014422;28;20370;-78
2022/07/01 07:43:14;;;;;;;3.85;1.90;;;;;;;;;;5011693;28;20073;-77
2022/07/01 07:45:40;;;;;;;6.05;1.90;;;;;;;;;;5006174;28;20042;-78
2022/07/01 07:48:06;;;;;;;2.67;1.40;;;;;;;;;;5011281;28;20374;-77
2022/07/01 07:50:33;;;;;;;2.78;1.60;;;;;;;;;;5008337;28;20041;-77
2022/07/01 07:52:59;;;;;;;3.75;1.70;;;;;;;;;;5009297;28;20088;-77
2022/07/01 07:55:25;;;;;;;3.00;1.60;;;;;;;;;;5010848;28;20041;-78
2022/07/01 07:57:51;;;;;;;3.28;1.65;;;;;;;;;;5009205;28;20493;-78
2022/07/01 08:00:17;;;;;;;2.10;1.50;;;;;;;;;;5008973;28;20045;-78
2022/07/01 08:02:44;;;;;;;3.75;1.75;;;;;;;;;;5011767;28;20065;-78
2022/07/01 08:05:10;;;;;;;2.45;1.40;;;;;;;;;;5010221;28;20092;-78
2022/07/01 08:07:37;;;;;;;3.17;1.65;;;;;;;;;;5010975;28;20164;-78
2022/07/01 08:10:07;;;;;;;3.78;1.55;;;;;;;;;;5004503;28;20046;-77
2022/07/01 08:12:33;;;;;;;1.50;1.40;;;;;;;;;;5008739;28;20077;-77
2022/07/01 08:14:59;;;;;;;4.18;1.70;;;;;;;;;;5008184;28;20406;-77
2022/07/01 08:17:26;;;;;;;3.45;1.45;;;;;;;;;;5002278;28;20054;-78
2022/07/01 08:19:52;;;;;;;1.52;1.25;;;;;;;;;;5007507;28;20061;-78
2022/07/01 08:22:19;;;;;;;4.32;1.65;;;;;;;;;;5007784;28;20472;-78
2022/07/01 08:24:45;;;;;;;4.25;1.95;;;;;;;;;;5007998;28;20061;-78
2022/07/01 08:27:12;;;;;;;3.40;1.52;;;;;;;;;;5009401;28;20041;-79
2022/07/01 08:29:38;;;;;;;2.05;1.52;;;;;;;;;;5007262;28;20065;-78
2022/07/01 08:32:05;;;;;;;3.28;1.50;;;;;;;;;;5009303;28;20073;-78
2022/07/01 08:34:31;;;;;;;5.40;1.50;;;;;;;;;;5030707;28;20056;-78
2022/07/01 08:36:57;;;;;;;4.35;1.80;;;;;;;;;;5004729;28;20088;-78
2022/07/01 08:39:23;;;;;;;4.40;1.52;;;;;;;;;;5006471;28;20139;-78
2022/07/01 08:41:49;;;;;;;2.15;1.50;;;;;;;;;;5010086;28;20133;-78
2022/07/01 08:44:15;;;;;;;2.92;1.50;;;;;;;;;;5006669;28;20044;-77
2022/07/01 08:46:41;;;;;;;2.88;1.42;;;;;;;;;;5010771;28;20397;-77
2022/07/01 08:49:07;;;;;;;2.22;1.40;;;;;;;;;;5005203;28;20042;-78
2022/07/01 08:51:33;;;;;;;3.55;1.20;;;;;;;;;;5008919;28;20065;-77
2022/07/01 08:54:00;;;;;;;2.72;1.30;;;;;;;;;;5008231;28;20054;-77
2022/07/01 08:56:40;;;;;;;3.85;1.58;;;;;;;;;;5009621;28;20060;-77
2022/07/01 08:59:07;;;;;;;1.52;1.30;;;;;;;;;;5006889;28;20038;-78
2022/07/01 09:01:33;;;;;;;1.80;1.40;;;;;;;;;;5007617;28;20049;-77
2022/07/01 09:04:26;;;;;;;2.33;1.50;;;;;;;;;;5007578;28;20046;-78
2022/07/01 09:06:52;;;;;;;3.47;1.45;;;;;;;;;;4997011;28;20413;-78
2022/07/01 09:09:20;;;;;;;3.97;1.48;;;;;;;;;;5006436;28;20120;-77
2022/07/01 09:11:54;;;;;;;4.10;1.80;;;;;;;;;;5008180;28;20389;-77
2022/07/01 09:14:24;;;;;;;3.03;1.60;;;;;;;;;;5005531;28;20060;-78
2022/07/01 09:16:51;;;;;;;2.70;1.60;;;;;;;;;;5006752;28;20041;-78
2022/07/01 09:19:18;;;;;;;3.85;1.95;;;;;;;;;;5007312;28;20050;-78
2022/07/01 09:21:49;;;;;;;4.13;1.90;;;;;;;;;;5010152;28;20041;-79
2022/07/01 09:24:26;;;;;;;2.15;1.63;;;;;;;;;;5006113;28;20634;-78
2022/07/01 09:27:17;;;;;;;3.05;1.60;;;;;;;;;;5008974;28;20449;-79
2022/07/01 09:29:45;;;;;;;3.50;1.75;;;;;;;;;;4997257;28;20054;-78
2022/07/01 09:32:12;;;;;;;5.82;2.20;;;;;;;;;;5006308;28;20053;-79
2022/07/01 09:34:41;;;;;;;2.80;1.70;;;;;;;;;;5004562;28;20046;-79
2022/07/01 09:37:07;;;;;;;2.58;1.70;;;;;;;;;;5003137;28;20144;-78
2022/07/01 09:39:43;;;;;;;6.72;1.90;;;;;;;;;;5007984;28;20046;-79
2022/07/01 09:42:09;;;;;;;5.32;1.83;;;;;;;;;;5010642;28;20081;-78
2022/07/01 09:44:35;;;;;;;4.03;1.92;;;;;;;;;;5014681;28;20049;-78
2022/07/01 09:47:05;;;;;;;4.70;1.80;;;;;;;;;;5015195;28;20045;-78
2022/07/01 09:49:31;;;;;;;3.92;1.80;;;;;;;;;;5013083;28;20053;-79
2022/07/01 09:51:57;;;;;;;1.98;1.50;;;;;;;;;;5008272;28;20405;-78
2022/07/01 09:54:26;;;;;;;6.93;2.03;;;;;;;;;;5011516;28;20050;-79
2022/07/01 09:56:52;;;;;;;2.00;1.58;;;;;;;;;;5015146;28;20045;-77
2022/07/01 09:59:18;;;;;;;2.33;1.65;;;;;;;;;;5009283;28;20042;-79
2022/07/01 10:01:44;;;;;;;2.22;1.50;;;;;;;;;;5013596;28;20103;-79
2022/07/01 10:04:11;;;;;;;3.47;1.70;;;;;;;;;;5014523;28;20492;-79
2022/07/01 10:06:46;;;;;;;2.15;1.50;;;;;;;;;;5014180;28;20274;-78
2022/07/01 10:09:12;;;;;;;3.03;1.70;;;;;;;;;;5007232;28;20049;-78
2022/07/01 10:11:47;;;;;;;3.03;1.60;;;;;;;;;;5009689;28;20042;-79
2022/07/01 10:14:14;;;;;;;3.95;1.60;;;;;;;;;;5014577;28;20053;-79
2022/07/01 10:16:40;;;;;;;3.53;1.70;;;;;;;;;;5014124;28;20057;-78
2022/07/01 10:19:25;;;;;;;3.92;1.42;;;;;;;;;;5013876;28;20068;-77
2022/07/01 10:21:55;;;;;;;2.78;1.63;;;;;;;;;;5008801;28;20163;-78
2022/07/01 10:24:21;;;;;;;3.15;1.60;;;;;;;;;;5014255;28;20050;-78
2022/07/01 10:26:47;;;;;;;4.85;1.50;;;;;;;;;;5014881;28;20042;-79
2022/07/01 10:29:33;;;;;;;3.22;1.60;;;;;;;;;;5014146;28;20421;-77
2022/07/01 10:32:01;;;;;;;4.72;1.85;;;;;;;;;;5013651;28;20070;-78
2022/07/01 10:34:34;;;;;;;4.35;2.17;;;;;;;;;;5012752;28;20053;-77
2022/07/01 10:37:04;;;;;;;6.53;2.28;;;;;;;;;;5013923;28;20049;-86
2022/07/01 10:39:30;;;;;;;3.42;1.63;;;;;;;;;;5010296;28;20056;-80
2022/07/01 10:41:58;;;;;;;3.50;1.52;;;;;;;;;;5012096;28;20096;-77
2022/07/01 10:44:25;;;;;;;2.60;1.50;;;;;;;;;;5009399;28;20054;-79
2022/07/01 10:46:58;;;;;;;2.22;1.50;;;;;;;;;;5010925;28;20125;-77
2022/07/01 10:49:36;;;;;;;2.97;1.35;;;;;;;;;;5013281;28;20402;-78
2022/07/01 10:52:09;;;;;;;1.83;1.30;;;;;;;;;;5007442;28;20508;-78
2022/07/01 10:54:35;;;;;;;1.85;1.30;;;;;;;;;;5007357;28;20124;-78
2022/07/01 10:57:20;;;;;;;2.80;1.20;;;;;;;;;;5007102;28;20046;-80
2022/07/01 10:59:50;;;;;;;4.18;1.60;;;;;;;;;;5009705;28;20041;-78
2022/07/01 11:02:17;;;;;;;2.03;1.50;;;;;;;;;;5007865;28;20149;-78
2022/07/01 11:04:44;;;;;;;2.40;1.40;;;;;;;;;;5008046;28;20041;-78
2022/07/01 11:07:10;;;;;;;2.55;1.33;;;;;;;;;;5009153;28;20088;-78
2022/07/01 11:09:36;;;;;;;2.97;1.38;;;;;;;;;;5008896;28;20088;-79
2022/07/01 11:12:02;;;;;;;2.80;1.58;;;;;;;;;;5008858;28;20501;-79
2022/07/01 11:14:28;;;;;;;4.28;1.50;;;;;;;;;;5008583;28;20046;-78
2022/07/01 11:16:57;;;;;;;1.95;1.30;;;;;;;;;;5007876;28;20049;-76
2022/07/01 11:19:24;;;;;;;2.22;1.40;;;;;;;;;;5008174;28;21169;-77
2022/07/01 11:21:53;;;;;;;2.28;1.50;;;;;;;;;;5007359;28;20042;-75
2022/07/01 11:24:19;;;;;;;3.35;1.45;;;;;;;;;;5017423;28;20061;-77
2022/07/01 11:26:46;;;;;;;2.10;1.50;;;;;;;;;;5005385;28;20046;-74
2022/07/01 11:29:12;;;;;;;2.13;1.30;;;;;;;;;;5011037;28;20038;-76
2022/07/01 11:31:39;;;;;;;2.25;1.40;;;;;;;;;;5008322;28;20037;-74
2022/07/01 11:34:05;;;;;;;3.70;1.52;;;;;;;;;;5011137;28;20049;-75
2022/07/01 11:39:32;;;;;;;3.33;1.50;;;;;;;;;;4989666;28;20406;-75
2022/07/01 11:41:59;;;;;;;3.40;1.65;;;;;;;;;;5011708;28;20099;-74
2022/07/01 11:44:29;;;;;;;2.88;1.50;;;;;;;;;;5010223;28;20398;-75
2022/07/01 11:46:55;;;;;;;2.85;1.40;;;;;;;;;;5004404;28;20045;-75
2022/07/01 11:49:23;;;;;;;4.75;1.65;;;;;;;;;;5002434;28;20073;-76
2022/07/01 11:51:56;;;;;;;3.85;1.60;;;;;;;;;;5010381;28;20050;-76
2022/07/01 11:54:22;;;;;;;2.53;1.38;;;;;;;;;;5009250;28;20042;-75
2022/07/01 11:56:48;;;;;;;3.95;1.63;;;;;;;;;;4999826;28;20052;-74
2022/07/01 11:59:14;;;;;;;4.32;1.60;;;;;;;;;;4996521;28;20049;-76
2022/07/01 12:01:40;;;;;;;2.75;1.60;;;;;;;;;;4996909;28;20037;-76
2022/07/01 12:04:08;;;;;;;2.72;1.33;;;;;;;;;;4998712;28;20100;-77
2022/07/01 12:06:35;;;;;;;4.43;1.80;;;;;;;;;;5010342;28;20049;-76
2022/07/01 12:09:01;;;;;;;2.58;1.63;;;;;;;;;;5007162;28;20091;-77
2022/07/01 12:11:28;;;;;;;3.58;1.48;;;;;;;;;;4997311;28;20050;-76
2022/07/01 12:13:56;;;;;;;4.57;1.60;;;;;;;;;;4961025;28;20118;-77
2022/07/01 12:16:22;;;;;;;5.25;1.98;;;;;;;;;;5005800;28;20092;-78
2022/07/01 12:18:54;;;;;;;3.70;1.65;;;;;;;;;;5000006;28;20054;-77
2022/07/01 12:21:21;;;;;;;3.50;1.63;;;;;;;;;;4996112;28;20068;-78
2022/07/01 12:24:11;;;;;;;4.15;1.50;;;;;;;;;;5004754;28;20052;-76
2022/07/01 12:26:47;;;;;;;4.50;1.90;;;;;;;;;;4997915;28;20141;-77
2022/07/01 12:29:13;;;;;;;4.28;1.70;;;;;;;;;;5003778;28;20050;-77
2022/07/01 12:31:42;;;;;;;2.72;1.55;;;;;;;;;;4995086;28;20053;-77
2022/07/01 12:34:09;;;;;;;4.22;1.70;;;;;;;;;;5019837;28;20384;-77
2022/07/01 12:36:35;;;;;;;2.40;1.70;;;;;;;;;;5015051;28;20044;-79
2022/07/01 12:39:03;;;;;;;4.97;2.10;;;;;;;;;;5009273;28;20038;-80
2022/07/01 12:41:30;;;;;;;5.70;1.80;;;;;;;;;;5003851;28;20050;-79
2022/07/01 12:43:56;;;;;;;3.53;1.60;;;;;;;;;;5001905;28;20057;-79
2022/07/01 12:46:29;;;;;;;6.90;2.25;;;;;;;;;;5008869;28;20045;-79
2022/07/01 12:48:55;;;;;;;;;;;;;;;;;;5007597;28;20089;-79
2022/07/01 12:51:21;;;;;;;8.60;1.80;;;;;;;;;;5006800;28;20373;-79
2022/07/01 12:53:47;;;;;;;4.40;1.58;;;;;;;;;;5009285;28;20489;-79
2022/07/01 12:56:24;;;;;;;3.75;1.75;;;;;;;;;;5011190;28;20129;-80
2022/07/01 12:58:52;;;;;;;2.35;1.60;;;;;;;;;;5008653;28;20045;-79
2022/07/01 13:01:19;;;;;;;6.47;1.98;;;;;;;;;;5001871;28;21696;-80
2022/07/01 13:03:45;;;;;;;6.85;1.85;;;;;;;;;;5005288;28;20049;-80
2022/07/01 13:06:11;;;;;;;5.35;1.90;;;;;;;;;;5005242;28;20367;-80
2022/07/01 13:08:37;;;;;;;6.57;1.80;;;;;;;;;;5012028;28;20051;-79
2022/07/01 13:11:03;;;;;;;3.22;1.75;;;;;;;;;;4994106;28;20042;-81
2022/07/01 13:13:29;;;;;;;4.95;1.60;;;;;;;;;;5002267;28;20037;-81
2022/07/01 13:15:55;;;;;;;3.17;1.55;;;;;;;;;;5005787;28;20038;-82
2022/07/01 13:18:21;;;;;;;5.00;1.77;;;;;;;;;;5007534;28;20037;-80
2022/07/01 13:20:47;;;;;;;2.13;1.50;;;;;;;;;;5005405;28;20517;-80
2022/07/01 13:23:14;;;;;;;5.80;2.08;;;;;;;;;;5004389;28;20057;-80
2022/07/01 13:25:40;;;;;;;4.43;1.60;;;;;;;;;;5003894;28;20132;-80
2022/07/01 13:28:07;;;;;;;4.63;1.70;;;;;;;;;;5011267;28;20384;-80
2022/07/01 13:30:33;;;;;;;4.32;1.80;;;;;;;;;;5007971;28;20045;-79
2022/07/01 13:32:59;;;;;;;4.30;1.77;;;;;;;;;;5000226;28;20072;-80
2022/07/01 13:35:26;;;;;;;3.20;1.85;;;;;;;;;;5003804;28;20057;-79
2022/07/01 13:37:52;;;;;;;4.53;1.90;;;;;;;;;;5001169;28;20151;-82
2022/07/01 13:40:18;;;;;;;2.85;1.40;;;;;;;;;;5000796;28;20049;-80
2022/07/01 13:42:44;;;;;;;4.88;2.00;;;;;;;;;;5009676;28;20397;-78
2022/07/01 13:45:11;;;;;;;3.88;1.73;;;;;;;;;;5007731;28;20030;-80
2022/07/01 13:47:37;;;;;;;5.47;1.77;;;;;;;;;;5003498;28;20120;-76
2022/07/01 13:50:03;;;;;;;3.05;1.60;;;;;;;;;;5004054;28;20543;-78
2022/07/01 13:52:29;;;;;;;2.40;1.50;;;;;;;;;;5007685;28;20485;-79
2022/07/01 13:54:59;;;;;;;1.80;1.40;;;;;;;;;;5006137;28;20082;-79
2022/07/01 13:57:25;;;;;;;4.38;1.70;;;;;;;;;;5009649;28;20164;-80
2022/07/01 13:59:52;;;;;;;2.13;1.35;;;;;;;;;;5006853;28;20089;-80
2022/07/01 14:02:18;;;;;;;3.40;1.60;;;;;;;;;;5003703;28;20165;-80
2022/07/01 14:04:45;;;;;;;3.08;1.75;;;;;;;;;;5005469;28;20073;-79
2022/07/01 14:07:11;;;;;;;3.47;1.70;;;;;;;;;;5008356;28;20462;-81
2022/07/01 14:09:38;;;;;;;3.17;1.48;;;;;;;;;;5009113;28;20631;-77
2022/07/01 14:12:04;;;;;;;5.95;1.80;;;;;;;;;;5009863;28;20060;-80
2022/07/01 14:14:30;;;;;;;4.05;1.63;;;;;;;;;;5008882;28;20073;-81
2022/07/01 14:16:56;;;;;;;3.45;1.65;;;;;;;;;;5009169;28;20038;-80
2022/07/01 14:19:22;;;;;;;2.13;1.42;;;;;;;;;;5003381;28;20042;-79
2022/07/01 14:21:48;;;;;;;3.25;1.63;;;;;;;;;;5005135;28;20049;-79
2022/07/01 14:24:14;;;;;;;4.35;1.70;;;;;;;;;;5004326;28;20046;-79
2022/07/01 14:26:40;;;;;;;3.85;1.45;;;;;;;;;;5007969;28;20038;-79
2022/07/01 14:29:07;;;;;;;3.50;1.50;;;;;;;;;;5003556;28;20379;-78
2022/07/01 14:31:33;;;;;;;2.20;1.40;;;;;;;;;;5010528;28;20034;-80
2022/07/01 14:33:59;;;;;;;3.00;1.40;;;;;;;;;;5000979;28;20046;-79
2022/07/01 14:36:25;;;;;;;2.78;1.73;;;;;;;;;;4999563;28;20045;-81
2022/07/01 14:38:51;;;;;;;3.75;1.38;;;;;;;;;;5006537;28;20266;-81
2022/07/01 14:41:17;;;;;;;3.03;1.40;;;;;;;;;;5004575;28;20042;-82
2022/07/01 14:43:44;;;;;;;3.15;1.70;;;;;;;;;;4992457;28;20069;-82
2022/07/01 14:46:13;;;;;;;4.68;1.63;;;;;;;;;;5001943;28;20038;-82
2022/07/01 14:48:40;;;;;;;3.67;1.80;;;;;;;;;;5010093;28;20038;-81
2022/07/01 14:51:06;;;;;;;4.53;1.42;;;;;;;;;;5014645;28;20048;-81
2022/07/01 14:53:32;;;;;;;4.40;1.70;;;;;;;;;;5012620;28;20092;-81
2022/07/01 14:55:58;;;;;;;3.72;1.67;;;;;;;;;;5011947;28;20136;-83